sensor_id;sensor_type;location;lat;lon;timestamp;pressure;altitude;pressure_sealevel;temperature;humidity
77149;BME280;66122;47.130;16.844;2023-04-03T00:03:11;99986.00;;;4.97;72.28
77149;BME280;66122;47.130;16.844;2023-04-03T00:13:21;99963.69;;;4.81;72.92
77149;BME280;66122;47.130;16.844;2023-04-03T00:23:51;99977.78;;;4.77;73.73
77149;BME280;66122;47.130;16.844;2023-04-03T00:34:00;99955.63;;;4.87;71.76
77149;BME280;66122;47.130;16.844;2023-04-03T00:54:42;99938.69;;;4.67;72.12
77149;BME280;66122;47.130;16.844;2023-04-03T01:05:07;99952.59;;;4.69;72.57
77149;BME280;66122;47.130;16.844;2023-04-03T01:15:21;99994.84;;;4.93;71.75
77149;BME280;66122;47.130;16.844;2023-04-03T01:25:32;99973.59;;;4.69;72.14
77149;BME280;66122;47.130;16.844;2023-04-03T01:35:46;100008.06;;;4.90;72.54
77149;BME280;66122;47.130;16.844;2023-04-03T01:46:17;100004.53;;;4.91;73.08
77149;BME280;66122;47.130;16.844;2023-04-03T01:56:27;99966.72;;;4.65;72.08
77149;BME280;66122;47.130;16.844;2023-04-03T02:06:57;100006.59;;;4.80;72.88
77149;BME280;66122;47.130;16.844;2023-04-03T02:17:06;99971.31;;;4.57;73.07
77149;BME280;66122;47.130;16.844;2023-04-03T02:27:36;99971.19;;;4.62;73.74
77149;BME280;66122;47.130;16.844;2023-04-03T02:37:45;100004.94;;;4.76;74.84
77149;BME280;66122;47.130;16.844;2023-04-03T02:48:15;100002.28;;;4.77;74.59
77149;BME280;66122;47.130;16.844;2023-04-03T02:58:25;99978.31;;;4.57;75.51
77149;BME280;66122;47.130;16.844;2023-04-03T03:08:33;99983.41;;;4.63;75.55
77149;BME280;66122;47.130;16.844;2023-04-03T03:18:43;99972.50;;;4.46;75.81
77149;BME280;66122;47.130;16.844;2023-04-03T03:29:15;99970.88;;;4.40;75.51
77149;BME280;66122;47.130;16.844;2023-04-03T03:39:20;99968.91;;;4.48;75.67
77149;BME280;66122;47.130;16.844;2023-04-03T03:49:30;100000.72;;;4.70;76.50
77149;BME280;66122;47.130;16.844;2023-04-03T04:00:04;99989.59;;;4.60;77.50
77149;BME280;66122;47.130;16.844;2023-04-03T04:10:22;100002.59;;;4.65;77.35
77149;BME280;66122;47.130;16.844;2023-04-03T04:20:32;99973.56;;;4.39;78.01
77149;BME280;66122;47.130;16.844;2023-04-03T04:30:43;99972.00;;;4.31;77.88
77149;BME280;66122;47.130;16.844;2023-04-03T04:40:48;99982.94;;;4.47;79.12
77149;BME280;66122;47.130;16.844;2023-04-03T04:50:57;99969.31;;;4.33;80.44
77149;BME280;66122;47.130;16.844;2023-04-03T05:01:08;99974.34;;;4.41;77.18
77149;BME280;66122;47.130;16.844;2023-04-03T05:11:19;100035.03;;;4.62;74.18
77149;BME280;66122;47.130;16.844;2023-04-03T05:21:28;99963.28;;;4.29;75.33
77149;BME280;66122;47.130;16.844;2023-04-03T05:31:51;100000.50;;;4.78;75.55
77149;BME280;66122;47.130;16.844;2023-04-03T05:41:56;100029.16;;;5.48;73.50
77149;BME280;66122;47.130;16.844;2023-04-03T05:52:02;100002.34;;;5.37;73.91
77149;BME280;66122;47.130;16.844;2023-04-03T06:02:19;99990.50;;;4.92;76.13
77149;BME280;66122;47.130;16.844;2023-04-03T06:12:33;100032.81;;;5.12;76.45
77149;BME280;66122;47.130;16.844;2023-04-03T06:22:42;100030.03;;;5.78;73.20
77149;BME280;66122;47.130;16.844;2023-04-03T06:32:51;100039.88;;;6.01;68.34
77149;BME280;66122;47.130;16.844;2023-04-03T06:42:55;100030.00;;;6.36;66.99
77149;BME280;66122;47.130;16.844;2023-04-03T06:53:03;100034.06;;;6.72;65.60
77149;BME280;66122;47.130;16.844;2023-04-03T07:03:07;100054.19;;;6.99;65.52
77149;BME280;66122;47.130;16.844;2023-04-03T07:13:14;100064.66;;;7.51;66.03
77149;BME280;66122;47.130;16.844;2023-04-03T07:23:18;100093.66;;;7.51;67.18
77149;BME280;66122;47.130;16.844;2023-04-03T07:33:22;100070.84;;;7.50;67.49
77149;BME280;66122;47.130;16.844;2023-04-03T07:43:25;100102.28;;;8.49;65.18
77149;BME280;66122;47.130;16.844;2023-04-03T07:53:29;100070.78;;;8.21;61.94
77149;BME280;66122;47.130;16.844;2023-04-03T08:03:32;100077.19;;;6.14;63.11
77149;BME280;66122;47.130;16.844;2023-04-03T08:13:36;100073.97;;;7.36;60.72
77149;BME280;66122;47.130;16.844;2023-04-03T08:23:40;100114.97;;;8.16;58.27
77149;BME280;66122;47.130;16.844;2023-04-03T08:33:48;100092.13;;;8.15;59.38
77149;BME280;66122;47.130;16.844;2023-04-03T08:54:33;100107.41;;;7.83;58.13
77149;BME280;66122;47.130;16.844;2023-04-03T09:04:37;100124.94;;;8.08;55.66
77149;BME280;66122;47.130;16.844;2023-04-03T09:25:12;100134.84;;;9.33;52.16
77149;BME280;66122;47.130;16.844;2023-04-03T09:35:20;100106.41;;;9.98;49.24
77149;BME280;66122;47.130;16.844;2023-04-03T09:45:37;100125.56;;;9.03;52.73
77149;BME280;66122;47.130;16.844;2023-04-03T09:55:47;100107.19;;;9.61;52.44
77149;BME280;66122;47.130;16.844;2023-04-03T10:05:52;100083.38;;;10.18;45.61
77149;BME280;66122;47.130;16.844;2023-04-03T10:16:07;100098.22;;;9.65;45.67
77149;BME280;66122;47.130;16.844;2023-04-03T10:47:20;100152.84;;;7.92;48.71
77149;BME280;66122;47.130;16.844;2023-04-03T10:57:28;100155.19;;;9.92;46.69
77149;BME280;66122;47.130;16.844;2023-04-03T11:07:45;100140.28;;;9.51;44.10
77149;BME280;66122;47.130;16.844;2023-04-03T11:18:13;100125.19;;;8.02;46.64
77149;BME280;66122;47.130;16.844;2023-04-03T11:29:05;100110.84;;;6.86;48.18
77149;BME280;66122;47.130;16.844;2023-04-03T11:39:32;100089.75;;;10.14;42.79
77149;BME280;66122;47.130;16.844;2023-04-03T11:49:51;100135.44;;;8.09;45.37
77149;BME280;66122;47.130;16.844;2023-04-03T12:01:04;100122.25;;;10.18;42.45
77149;BME280;66122;47.130;16.844;2023-04-03T12:13:15;100116.72;;;9.45;43.33
77149;BME280;66122;47.130;16.844;2023-04-03T12:23:34;100068.09;;;10.95;37.92
77149;BME280;66122;47.130;16.844;2023-04-03T12:34:07;100057.31;;;9.91;37.60
77149;BME280;66122;47.130;16.844;2023-04-03T12:44:35;100094.00;;;10.90;35.92
77149;BME280;66122;47.130;16.844;2023-04-03T12:54:49;100050.09;;;9.16;38.62
77149;BME280;66122;47.130;16.844;2023-04-03T13:05:23;100070.72;;;10.25;35.93
77149;BME280;66122;47.130;16.844;2023-04-03T13:15:42;100015.75;;;10.47;36.63
77149;BME280;66122;47.130;16.844;2023-04-03T13:25:48;100061.22;;;10.21;36.69
77149;BME280;66122;47.130;16.844;2023-04-03T13:36:06;100087.56;;;7.97;42.38
77149;BME280;66122;47.130;16.844;2023-04-03T13:46:27;100077.53;;;7.35;41.62
77149;BME280;66122;47.130;16.844;2023-04-03T13:56:36;100074.19;;;9.88;38.84
77149;BME280;66122;47.130;16.844;2023-04-03T14:06:45;100077.88;;;7.26;41.32
77149;BME280;66122;47.130;16.844;2023-04-03T14:16:55;100059.63;;;9.00;39.32
77149;BME280;66122;47.130;16.844;2023-04-03T14:26:58;100040.69;;;9.29;40.19
77149;BME280;66122;47.130;16.844;2023-04-03T14:37:02;100043.19;;;10.09;36.58
77149;BME280;66122;47.130;16.844;2023-04-03T14:47:16;100054.53;;;8.53;38.48
77149;BME280;66122;47.130;16.844;2023-04-03T14:57:33;100052.00;;;8.50;39.35
77149;BME280;66122;47.130;16.844;2023-04-03T15:07:39;100051.28;;;6.30;43.34
77149;BME280;66122;47.130;16.844;2023-04-03T15:17:44;100075.91;;;6.55;44.31
77149;BME280;66122;47.130;16.844;2023-04-03T15:27:47;100037.78;;;6.12;43.57
77149;BME280;66122;47.130;16.844;2023-04-03T15:37:52;100049.13;;;7.66;41.66
77149;BME280;66122;47.130;16.844;2023-04-03T15:47:55;100067.75;;;6.35;41.26
77149;BME280;66122;47.130;16.844;2023-04-03T15:57:59;100092.91;;;5.57;44.11
77149;BME280;66122;47.130;16.844;2023-04-03T16:08:04;100099.44;;;5.73;43.86
77149;BME280;66122;47.130;16.844;2023-04-03T16:18:08;100076.75;;;5.07;45.79
77149;BME280;66122;47.130;16.844;2023-04-03T16:28:16;100081.56;;;4.56;46.13
77149;BME280;66122;47.130;16.844;2023-04-03T16:38:26;100093.56;;;4.66;46.19
77149;BME280;66122;47.130;16.844;2023-04-03T16:49:03;100110.44;;;4.54;46.31
77149;BME280;66122;47.130;16.844;2023-04-03T16:59:13;100071.41;;;4.04;47.54
77149;BME280;66122;47.130;16.844;2023-04-03T17:09:34;100109.28;;;3.90;49.07
77149;BME280;66122;47.130;16.844;2023-04-03T17:19:37;100135.63;;;3.84;49.18
77149;BME280;66122;47.130;16.844;2023-04-03T17:29:47;100150.91;;;3.64;49.75
77149;BME280;66122;47.130;16.844;2023-04-03T17:40:06;100180.78;;;3.54;50.49
77149;BME280;66122;47.130;16.844;2023-04-03T17:50:40;100159.69;;;3.14;50.61
77149;BME280;66122;47.130;16.844;2023-04-03T18:00:49;100198.72;;;3.29;50.32
77149;BME280;66122;47.130;16.844;2023-04-03T18:10:58;100154.97;;;2.82;50.55
77149;BME280;66122;47.130;16.844;2023-04-03T18:21:09;100225.47;;;2.94;49.74
77149;BME280;66122;47.130;16.844;2023-04-03T18:31:20;100229.09;;;2.84;49.49
77149;BME280;66122;47.130;16.844;2023-04-03T18:41:52;100237.19;;;2.67;51.16
77149;BME280;66122;47.130;16.844;2023-04-03T18:52:00;100291.16;;;2.76;50.42
77149;BME280;66122;47.130;16.844;2023-04-03T19:02:11;100280.84;;;2.65;50.47
77149;BME280;66122;47.130;16.844;2023-04-03T19:12:38;100296.75;;;2.50;51.01
77149;BME280;66122;47.130;16.844;2023-04-03T19:22:47;100262.09;;;2.31;53.03
77149;BME280;66122;47.130;16.844;2023-04-03T19:32:51;100256.03;;;2.29;52.20
77149;BME280;66122;47.130;16.844;2023-04-03T19:43:00;100271.66;;;2.32;52.63
77149;BME280;66122;47.130;16.844;2023-04-03T19:53:26;100249.28;;;2.12;53.68
77149;BME280;66122;47.130;16.844;2023-04-03T20:03:56;100196.47;;;1.85;53.86
77149;BME280;66122;47.130;16.844;2023-04-03T20:14:06;100209.44;;;1.91;53.52
77149;BME280;66122;47.130;16.844;2023-04-03T20:24:38;100232.78;;;2.05;53.64
77149;BME280;66122;47.130;16.844;2023-04-03T20:34:41;100171.28;;;1.78;53.67
77149;BME280;66122;47.130;16.844;2023-04-03T20:44:51;100192.97;;;1.85;55.06
77149;BME280;66122;47.130;16.844;2023-04-03T20:55:03;100140.03;;;1.71;53.20
77149;BME280;66122;47.130;16.844;2023-04-03T21:05:13;100127.00;;;1.66;53.09
77149;BME280;66122;47.130;16.844;2023-04-03T21:26:25;100184.28;;;1.81;52.85
77149;BME280;66122;47.130;16.844;2023-04-03T21:37:03;100156.75;;;1.53;54.23
77149;BME280;66122;47.130;16.844;2023-04-03T21:47:36;100168.94;;;1.55;54.03
77149;BME280;66122;47.130;16.844;2023-04-03T21:58:06;100180.31;;;1.50;54.36
77149;BME280;66122;47.130;16.844;2023-04-03T22:08:15;100164.78;;;1.36;54.91
77149;BME280;66122;47.130;16.844;2023-04-03T22:18:28;100167.50;;;1.26;54.60
77149;BME280;66122;47.130;16.844;2023-04-03T22:28:42;100219.56;;;1.42;55.58
77149;BME280;66122;47.130;16.844;2023-04-03T22:38:52;100171.09;;;1.12;55.80
77149;BME280;66122;47.130;16.844;2023-04-03T22:49:02;100155.59;;;0.96;56.61
77149;BME280;66122;47.130;16.844;2023-04-03T22:59:16;100187.75;;;0.98;56.57
77149;BME280;66122;47.130;16.844;2023-04-03T23:09:25;100191.22;;;1.00;56.05
77149;BME280;66122;47.130;16.844;2023-04-03T23:19:55;100187.88;;;0.79;56.92
77149;BME280;66122;47.130;16.844;2023-04-03T23:30:05;100188.91;;;0.63;57.77
77149;BME280;66122;47.130;16.844;2023-04-03T23:40:30;100207.09;;;0.71;58.60
77149;BME280;66122;47.130;16.844;2023-04-03T23:50:47;100200.19;;;0.62;58.74
